Terminal Aerodrome Forecast
Issued by NWS Pocatello, ID

Home | Current Version | Previous Version | Text Only | Print | Product List | Glossary On
Versions: 1 2 3 4 5 6 7 8 9 10 11 12 13
000
FTUS45 KPIH 212300
TAFBYI
TAF
KBYI 212320Z 2200/2224 22010KT P6SM -SHRA VCTS SCT040 OVC060CB
     FM220600 18010KT P6SM VCTS SCT050 BKN070CB
     FM221200 20011KT P6SM -SHRA VCTS SCT030 BKN060CB
     FM222000 27009KT P6SM VCSH SCT030 BKN110=

USA.gov is the U.S. government's official web portal to all federal, state and local government web resources and services.